Time;durP1;ratioP1;P1;durP2;ratioP2;P2;SDS_P1;SDS_P2;PMS_P1;PMS_P2;Temp;Humidity;BMP_temperature;BMP_pressure;BME280_temperature;BME280_humidity;BME280_pressure;Samples;Min_cycle;Max_cycle;Signal;HPM_P1;HPM_P2
2021/12/16 03:46:32;;;;;;;18.35;11.48;;;8.50;94.60;;;;;;5153713;25;20069;-83
2021/12/16 03:49:17;;;;;;;16.27;10.77;;;8.40;94.50;;;;;;4696510;30;20233;-82
2021/12/16 03:51:50;;;;;;;17.52;10.75;;;8.40;94.60;;;;;;4685957;30;20079;-81
2021/12/16 03:54:25;;;;;;;18.77;11.68;;;8.50;94.60;;;;;;4685468;30;20030;-80
2021/12/16 03:56:58;;;;;;;17.42;10.77;;;8.40;94.70;;;;;;4683340;30;20194;-80
2021/12/16 03:59:29;;;;;;;17.60;10.90;;;8.40;94.70;;;;;;4688840;30;20075;-82
2021/12/16 04:02:20;;;;;;;15.55;10.10;;;8.50;94.60;;;;;;4691263;30;20260;-83
2021/12/16 04:04:51;;;;;;;16.98;10.52;;;8.50;94.50;;;;;;4696506;30;20075;-81
2021/12/16 04:07:23;;;;;;;16.80;10.43;;;8.60;94.60;;;;;;4682184;30;20329;-82
2021/12/16 04:10:37;;;;;;;16.15;10.57;;;8.60;94.50;;;;;;4601365;31;20067;-82
2021/12/16 04:13:15;;;;;;;15.05;10.05;;;8.60;94.50;;;;;;4610887;31;20039;-82
2021/12/16 04:15:45;;;;;;;15.25;9.30;;;8.60;94.50;;;;;;4613158;31;20063;-82
2021/12/16 04:18:13;;;;;;;17.17;10.55;;;8.70;94.70;;;;;;4604478;31;20115;-82
2021/12/16 04:20:39;;;;;;;15.98;9.57;;;8.70;94.40;;;;;;4624030;30;20084;-82
2021/12/16 04:23:09;;;;;;;15.13;9.00;;;8.60;94.30;;;;;;4591294;31;20035;-82
2021/12/16 04:25:40;;;;;;;13.32;8.43;;;8.60;94.30;;;;;;4611798;31;20127;-82
2021/12/16 04:28:14;;;;;;;13.60;8.32;;;8.60;94.30;;;;;;4620492;31;20348;-82
2021/12/16 04:30:42;;;;;;;11.30;7.53;;;8.70;94.40;;;;;;4597097;31;20028;-82
2021/12/16 04:33:09;;;;;;;11.60;7.90;;;8.70;94.30;;;;;;4598028;31;20071;-82
2021/12/16 04:35:36;;;;;;;11.70;7.60;;;8.70;94.50;;;;;;4610854;31;20449;-82
2021/12/16 04:38:03;;;;;;;13.80;7.68;;;8.70;94.10;;;;;;4583475;31;20043;-82
2021/12/16 04:40:31;;;;;;;10.35;7.18;;;8.60;94.10;;;;;;4591202;31;20267;-82
2021/12/16 04:43:04;;;;;;;12.02;7.63;;;8.60;94.10;;;;;;4610860;31;20118;-82
2021/12/16 04:45:50;;;;;;;;;;;8.70;94.20;;;;;;4648361;30;20142;-82
2021/12/16 04:48:16;;;;;;;17.92;8.38;;;8.60;94.10;;;;;;4665661;30;19915;-82
2021/12/16 04:50:42;;;;;;;14.77;7.73;;;8.60;94.10;;;;;;4664662;30;20076;-82
2021/12/16 04:53:11;;;;;;;12.57;7.43;;;8.60;94.10;;;;;;4668995;30;20034;-82
2021/12/16 04:55:40;;;;;;;10.38;7.07;;;8.60;94.20;;;;;;4664522;30;20065;-82
2021/12/16 04:58:06;;;;;;;11.93;7.88;;;8.60;94.30;;;;;;4661472;30;20073;-82
2021/12/16 05:00:32;;;;;;;11.40;7.07;;;8.60;94.30;;;;;;4634589;30;20045;-82
2021/12/16 05:03:27;;;;;;;12.65;7.90;;;8.60;94.30;;;;;;4630606;31;20248;-83
2021/12/16 05:05:54;;;;;;;10.15;7.72;;;8.60;94.40;;;;;;4626877;31;20039;-82
2021/12/16 05:08:22;;;;;;;12.27;7.90;;;8.60;94.60;;;;;;4626730;31;20105;-82
2021/12/16 05:11:04;;;;;;;12.13;6.95;;;8.60;94.50;;;;;;4639321;31;20035;-82
2021/12/16 05:13:35;;;;;;;11.77;7.70;;;8.60;94.70;;;;;;4642323;30;20051;-82
2021/12/16 05:16:04;;;;;;;11.32;7.43;;;8.60;94.80;;;;;;4634375;31;20035;-82
2021/12/16 05:18:37;;;;;;;10.48;7.30;;;8.60;94.80;;;;;;4628026;31;20394;-82
2021/12/16 05:21:26;;;;;;;11.02;7.32;;;8.60;94.90;;;;;;4626460;31;20047;-82
2021/12/16 05:26:36;;;;;;;12.70;8.55;;;8.50;95.50;;;;;;4626566;31;20050;-82
2021/12/16 05:29:07;;;;;;;12.32;7.47;;;8.50;95.40;;;;;;4626576;31;20057;-82
2021/12/16 05:31:34;;;;;;;14.90;8.35;;;8.50;95.50;;;;;;4634169;30;20302;-82
2021/12/16 05:34:02;;;;;;;12.13;7.70;;;8.50;95.70;;;;;;4643584;30;20094;-82
2021/12/16 05:36:31;;;;;;;10.73;7.25;;;8.50;95.70;;;;;;4641144;30;20028;-82
2021/12/16 05:38:57;;;;;;;14.05;8.45;;;8.50;95.70;;;;;;4648125;30;20227;-82
2021/12/16 05:41:26;;;;;;;10.40;7.15;;;8.50;95.60;;;;;;4664439;30;20330;-82
2021/12/16 05:43:56;;;;;;;14.40;8.73;;;8.50;95.70;;;;;;4663899;30;20085;-82
2021/12/16 05:46:24;;;;;;;12.95;9.05;;;8.40;95.80;;;;;;4663595;30;20388;-82
2021/12/16 05:48:52;;;;;;;16.30;8.32;;;8.40;95.80;;;;;;4675160;30;20158;-82
2021/12/16 05:51:24;;;;;;;12.45;8.45;;;8.50;95.90;;;;;;4636867;30;20072;-83
2021/12/16 05:53:52;;;;;;;14.43;9.13;;;8.40;95.90;;;;;;4689190;30;20048;-82
2021/12/16 05:56:37;;;;;;;12.45;8.90;;;8.40;95.90;;;;;;4648152;30;20046;-82
2021/12/16 05:59:05;;;;;;;11.82;7.93;;;8.40;95.90;;;;;;4640828;30;20330;-82
2021/12/16 06:01:33;;;;;;;13.32;7.90;;;8.40;95.80;;;;;;4688834;30;20057;-82
2021/12/16 06:04:00;;;;;;;13.63;7.95;;;8.40;96.00;;;;;;4674113;30;20052;-83
2021/12/16 06:06:27;;;;;;;;;;;8.40;95.90;;;;;;4673251;30;20052;-83
2021/12/16 06:08:54;;;;;;;12.97;7.83;;;8.30;96.00;;;;;;4660199;30;19932;-82
2021/12/16 06:11:23;;;;;;;11.70;7.05;;;8.30;96.00;;;;;;4679928;30;20034;-82
2021/12/16 06:14:00;;;;;;;11.95;7.82;;;8.30;96.10;;;;;;4693213;30;20038;-83
2021/12/16 06:27:28;;;;;;;13.10;7.53;;;8.40;96.10;;;;;;4676257;30;20425;-83
2021/12/16 06:29:54;;;;;;;10.68;7.63;;;8.40;96.10;;;;;;4642275;30;20050;-83
2021/12/16 06:32:21;;;;;;;11.50;7.33;;;8.40;96.20;;;;;;4640745;30;20255;-82
2021/12/16 06:34:47;;;;;;;;;;;8.40;96.20;;;;;;4681841;30;20353;-82
2021/12/16 06:37:15;;;;;;;10.82;7.53;;;8.40;96.30;;;;;;4670949;30;19955;-83
2021/12/16 06:39:42;;;;;;;11.48;7.22;;;8.30;96.30;;;;;;4671728;30;20038;-82
2021/12/16 06:42:29;;;;;;;13.18;7.82;;;8.30;96.30;;;;;;4672619;30;20226;-83
2021/12/16 06:45:04;;;;;;;11.15;7.15;;;8.40;96.50;;;;;;4635591;30;20030;-82
2021/12/16 06:47:46;;;;;;;10.50;6.57;;;8.30;96.60;;;;;;4668899;30;20065;-82
2021/12/16 06:50:23;;;;;;;10.98;7.30;;;8.30;96.70;;;;;;4675769;30;20047;-82
2021/12/16 06:52:50;;;;;;;10.80;7.03;;;8.30;96.70;;;;;;4674222;30;20034;-82
2021/12/16 06:55:24;;;;;;;;;;;8.30;96.70;;;;;;4660167;30;20061;-82
2021/12/16 06:57:54;;;;;;;11.38;7.60;;;8.30;96.70;;;;;;4659558;30;19923;-82
2021/12/16 07:00:37;;;;;;;12.35;7.75;;;8.30;96.50;;;;;;4674792;30;20034;-82
2021/12/16 07:03:06;;;;;;;8.95;6.15;;;8.30;96.50;;;;;;4661755;30;20038;-82
2021/12/16 07:05:40;;;;;;;11.07;6.32;;;8.30;96.50;;;;;;4662936;30;20045;-82
2021/12/16 07:08:13;;;;;;;11.73;6.70;;;8.30;96.60;;;;;;4660746;30;20138;-82
2021/12/16 07:10:40;;;;;;;9.88;6.47;;;8.30;96.60;;;;;;4675817;30;20038;-82
2021/12/16 07:13:15;;;;;;;12.70;6.90;;;8.30;96.60;;;;;;4646913;30;20038;-82
2021/12/16 07:15:41;;;;;;;10.68;6.70;;;8.30;96.60;;;;;;4659890;30;21194;-82
2021/12/16 07:18:07;;;;;;;8.13;6.25;;;8.40;96.60;;;;;;4688511;30;20109;-82
2021/12/16 07:20:35;;;;;;;13.25;6.85;;;8.40;96.60;;;;;;4693994;30;20340;-82
2021/12/16 07:23:03;;;;;;;9.07;6.10;;;8.30;96.70;;;;;;4678611;30;20034;-82
2021/12/16 07:25:30;;;;;;;7.88;5.60;;;8.40;96.80;;;;;;4665756;30;20037;-82
2021/12/16 07:27:56;;;;;;;10.00;6.45;;;8.30;97.20;;;;;;4663685;30;20061;-82
2021/12/16 07:30:25;;;;;;;9.10;5.95;;;8.30;97.50;;;;;;4665051;30;20140;-82
2021/12/16 07:32:52;;;;;;;9.75;6.55;;;8.30;97.40;;;;;;4649205;30;20042;-82
2021/12/16 07:35:23;;;;;;;11.45;7.90;;;8.20;97.60;;;;;;4663298;30;20030;-81
2021/12/16 07:37:51;;;;;;;13.02;7.65;;;8.30;97.70;;;;;;4676052;30;20038;-82
2021/12/16 07:40:22;;;;;;;13.70;8.27;;;8.20;97.90;;;;;;4676171;30;20756;-82
2021/12/16 07:43:19;;;;;;;12.93;8.40;;;8.10;98.00;;;;;;4664277;30;20326;-82
2021/12/16 07:45:44;;;;;;;13.10;8.45;;;8.10;98.20;;;;;;4693503;30;20318;-82
2021/12/16 07:48:12;;;;;;;18.52;9.52;;;8.00;98.20;;;;;;4697511;30;20088;-81
2021/12/16 07:50:40;;;;;;;21.52;9.32;;;8.10;98.20;;;;;;4663824;30;20037;-81
2021/12/16 07:53:06;;;;;;;16.83;9.70;;;8.10;98.40;;;;;;4697421;30;20049;-81
2021/12/16 07:55:33;;;;;;;17.50;11.80;;;8.10;98.60;;;;;;4662653;30;20042;-81
2021/12/16 07:57:59;;;;;;;14.63;9.95;;;8.10;98.90;;;;;;4662616;30;20113;-82
2021/12/16 08:00:28;;;;;;;14.93;8.90;;;8.10;98.90;;;;;;4660790;30;20048;-82
2021/12/16 08:02:54;;;;;;;16.27;8.85;;;8.20;98.90;;;;;;4677385;30;20025;-82
2021/12/16 08:05:23;;;;;;;13.13;8.43;;;8.20;98.80;;;;;;4670003;30;20387;-82
2021/12/16 08:07:49;;;;;;;13.80;8.95;;;8.20;98.70;;;;;;4677013;30;20348;-82
2021/12/16 08:10:19;;;;;;;14.97;9.27;;;8.20;98.60;;;;;;4658205;30;20045;-82
2021/12/16 08:12:45;;;;;;;15.85;8.95;;;8.20;98.70;;;;;;4675042;30;20026;-82
2021/12/16 08:15:11;;;;;;;12.18;7.68;;;8.40;98.80;;;;;;4675811;30;20041;-82
2021/12/16 08:17:38;;;;;;;10.05;7.15;;;8.40;98.30;;;;;;4660044;30;20230;-81
2021/12/16 08:20:06;;;;;;;11.18;7.38;;;8.50;98.10;;;;;;4688833;30;20055;-81
2021/12/16 08:22:31;;;;;;;10.98;7.82;;;8.50;98.00;;;;;;4681762;30;20022;-81
2021/12/16 08:24:57;;;;;;;13.10;7.75;;;8.50;97.90;;;;;;4677848;30;20046;-81
2021/12/16 08:27:23;;;;;;;11.55;7.72;;;8.50;98.20;;;;;;4691644;30;20049;-81
2021/12/16 08:29:49;;;;;;;12.30;7.95;;;8.50;98.00;;;;;;4684712;30;20026;-82
2021/12/16 08:32:15;;;;;;;11.27;7.78;;;8.50;98.10;;;;;;4687511;30;20077;-81
2021/12/16 08:34:43;;;;;;;15.07;9.13;;;8.50;98.20;;;;;;4673149;30;20046;-81
2021/12/16 08:37:09;;;;;;;16.70;9.43;;;8.60;98.30;;;;;;4672790;30;20084;-82
2021/12/16 08:39:37;;;;;;;14.60;9.48;;;8.60;98.20;;;;;;4676626;30;20068;-82
2021/12/16 08:42:05;;;;;;;15.52;8.85;;;8.60;98.00;;;;;;4697384;30;20050;-83
2021/12/16 08:44:31;;;;;;;13.68;8.57;;;8.50;98.30;;;;;;4663515;30;20042;-82
2021/12/16 08:47:06;;;;;;;12.33;8.03;;;8.50;98.10;;;;;;4674550;30;20252;-82
2021/12/16 08:49:33;;;;;;;14.35;8.10;;;8.40;98.30;;;;;;4661278;30;20296;-82
2021/12/16 08:52:05;;;;;;;11.57;7.35;;;8.40;98.30;;;;;;4676031;30;20117;-82
2021/12/16 08:54:32;;;;;;;10.88;7.63;;;8.30;98.30;;;;;;4677554;30;20037;-81
2021/12/16 08:56:58;;;;;;;11.70;7.28;;;8.30;98.40;;;;;;4661780;30;20046;-82
2021/12/16 08:59:25;;;;;;;9.32;5.65;;;8.30;98.50;;;;;;4661791;30;20038;-83
2021/12/16 09:01:55;;;;;;;12.20;7.55;;;8.20;98.50;;;;;;4675667;30;20089;-82
2021/12/16 09:04:23;;;;;;;9.05;6.22;;;8.30;98.60;;;;;;4661388;30;20326;-82
2021/12/16 09:06:52;;;;;;;8.95;6.13;;;8.30;98.50;;;;;;4661688;30;20767;-82
2021/12/16 09:09:18;;;;;;;9.05;5.97;;;8.30;98.60;;;;;;4658253;30;20046;-82
2021/12/16 09:12:01;;;;;;;10.98;6.65;;;8.40;98.80;;;;;;4662782;30;20238;-83
2021/12/16 09:14:29;;;;;;;8.00;5.40;;;8.50;98.70;;;;;;4676915;30;20054;-82
2021/12/16 09:16:55;;;;;;;8.23;5.35;;;8.60;98.50;;;;;;4661236;30;20050;-84
2021/12/16 09:19:21;;;;;;;9.50;5.33;;;8.60;98.40;;;;;;4676663;30;20053;-82
2021/12/16 09:21:47;;;;;;;10.07;5.65;;;8.60;98.40;;;;;;4676487;30;20030;-82
2021/12/16 09:24:14;;;;;;;9.07;5.70;;;8.60;98.40;;;;;;4661753;30;20089;-81
2021/12/16 09:26:44;;;;;;;7.35;5.00;;;8.80;98.60;;;;;;4662625;30;20147;-82
2021/12/16 09:29:11;;;;;;;9.85;4.85;;;8.90;98.10;;;;;;4660897;30;20272;-82
2021/12/16 09:31:37;;;;;;;7.65;4.72;;;8.90;97.80;;;;;;4660693;30;20120;-82
2021/12/16 09:34:08;;;;;;;6.93;4.88;;;8.90;97.80;;;;;;4664733;30;20046;-82
2021/12/16 09:36:36;;;;;;;6.40;4.15;;;8.80;96.70;;;;;;4676464;30;20034;-82
2021/12/16 09:39:06;;;;;;;6.20;4.32;;;8.80;97.20;;;;;;4661650;30;20054;-82
2021/12/16 09:41:32;;;;;;;6.32;4.35;;;8.80;97.00;;;;;;4661582;30;20049;-82
2021/12/16 09:44:01;;;;;;;8.95;4.70;;;8.80;97.00;;;;;;4676182;30;20056;-83
2021/12/16 09:46:29;;;;;;;7.78;4.47;;;8.80;97.10;;;;;;4650167;30;20121;-83
2021/12/16 09:48:56;;;;;;;6.97;4.07;;;8.80;96.60;;;;;;4673683;30;20466;-82
2021/12/16 09:51:27;;;;;;;7.47;4.20;;;8.90;96.80;;;;;;4633294;30;20051;-83
2021/12/16 09:53:58;;;;;;;6.13;4.15;;;8.90;96.40;;;;;;4675333;30;20041;-83
2021/12/16 09:56:26;;;;;;;5.90;4.05;;;8.90;96.50;;;;;;4648939;30;20026;-83
2021/12/16 09:58:53;;;;;;;6.45;4.65;;;9.00;96.20;;;;;;4647992;30;20050;-82
2021/12/16 10:01:21;;;;;;;6.43;4.18;;;9.00;96.40;;;;;;4659276;30;20038;-83
2021/12/16 10:03:48;;;;;;;4.65;3.25;;;9.00;95.60;;;;;;4659700;30;20109;-82
2021/12/16 10:06:16;;;;;;;9.23;3.45;;;8.90;95.60;;;;;;4659656;30;20344;-83
2021/12/16 10:08:42;;;;;;;6.85;3.55;;;9.00;96.20;;;;;;4661426;30;20397;-83
2021/12/16 10:11:08;;;;;;;6.53;3.80;;;9.00;95.70;;;;;;4663940;30;20294;-82
2021/12/16 10:13:47;;;;;;;6.00;3.38;;;9.00;95.40;;;;;;4647965;30;20237;-83
2021/12/16 10:18:58;;;;;;;4.55;3.47;;;9.00;95.50;;;;;;4663078;30;20207;-83
2021/12/16 10:21:24;;;;;;;10.55;3.80;;;9.00;95.40;;;;;;4676076;30;20038;-83
2021/12/16 10:23:51;;;;;;;8.07;3.87;;;9.00;95.50;;;;;;4658670;30;20046;-83
2021/12/16 10:26:21;;;;;;;9.65;3.80;;;9.00;95.40;;;;;;4644968;30;20546;-83
2021/12/16 10:28:51;;;;;;;8.25;3.17;;;9.00;95.30;;;;;;4659259;30;20045;-82
2021/12/16 10:31:20;;;;;;;10.07;4.75;;;9.00;95.10;;;;;;4659829;30;20034;-83
2021/12/16 10:33:53;;;;;;;6.13;3.90;;;9.00;95.10;;;;;;4645198;30;20035;-82
2021/12/16 10:36:26;;;;;;;5.30;3.67;;;9.00;94.80;;;;;;4661778;30;20053;-82
2021/12/16 10:39:07;;;;;;;5.50;3.30;;;8.90;94.80;;;;;;4643825;30;20045;-83
2021/12/16 10:41:37;;;;;;;4.50;3.25;;;8.90;95.00;;;;;;4646429;30;20029;-83
2021/12/16 10:44:24;;;;;;;6.05;4.35;;;8.90;95.10;;;;;;4659192;30;20057;-83
2021/12/16 10:47:00;;;;;;;8.10;4.60;;;8.80;94.80;;;;;;4673270;30;20239;-82
2021/12/16 10:49:30;;;;;;;6.15;3.97;;;8.80;95.10;;;;;;4659301;30;20046;-83
2021/12/16 10:52:00;;;;;;;8.57;5.22;;;8.70;94.80;;;;;;4673335;30;20038;-83
2021/12/16 10:54:29;;;;;;;10.20;4.82;;;8.70;95.20;;;;;;4667551;30;20026;-83
2021/12/16 10:57:15;;;;;;;7.00;4.55;;;8.70;95.20;;;;;;4672995;30;20030;-82
2021/12/16 10:59:55;;;;;;;6.05;4.15;;;8.60;95.40;;;;;;4672846;30;20031;-82
2021/12/16 11:02:32;;;;;;;9.40;5.65;;;8.50;95.40;;;;;;4658109;30;20041;-82
2021/12/16 11:05:20;;;;;;;8.13;4.45;;;8.50;95.70;;;;;;4674154;30;20035;-82
2021/12/16 11:07:58;;;;;;;6.35;4.38;;;8.60;95.50;;;;;;4673135;30;20050;-82
2021/12/16 11:10:37;;;;;;;7.68;5.15;;;8.60;95.30;;;;;;4688257;30;20042;-82
2021/12/16 11:13:09;;;;;;;7.32;5.05;;;8.70;95.40;;;;;;4656663;30;20078;-82
2021/12/16 11:15:35;;;;;;;6.38;4.15;;;8.70;95.40;;;;;;4659557;30;20068;-81
2021/12/16 11:18:07;;;;;;;8.95;4.57;;;8.80;95.30;;;;;;4675311;30;20073;-82
2021/12/16 11:20:41;;;;;;;7.60;4.75;;;8.80;95.30;;;;;;4674619;30;20242;-82
2021/12/16 11:23:12;;;;;;;8.48;4.90;;;8.80;95.20;;;;;;4660066;30;20034;-82
2021/12/16 11:25:40;;;;;;;9.10;4.82;;;8.80;95.10;;;;;;4660230;30;20039;-82
2021/12/16 11:28:12;;;;;;;8.55;4.90;;;8.90;95.10;;;;;;4661444;30;20242;-82
2021/12/16 11:30:57;;;;;;;10.52;5.70;;;9.10;94.60;;;;;;4674744;30;20074;-82
2021/12/16 11:33:26;;;;;;;8.50;5.15;;;9.10;94.60;;;;;;4674410;30;20097;-82
2021/12/16 11:36:03;;;;;;;11.27;4.93;;;9.30;93.90;;;;;;4668656;30;20045;-82
2021/12/16 11:38:32;;;;;;;;;;;9.40;93.80;;;;;;4675446;30;20049;-82
2021/12/16 11:41:12;;;;;;;5.90;4.15;;;9.30;93.70;;;;;;4660534;30;20027;-82
2021/12/16 11:43:52;;;;;;;13.60;5.25;;;9.30;94.00;;;;;;4671706;30;20073;-82
2021/12/16 11:46:26;;;;;;;6.60;4.40;;;9.30;93.90;;;;;;4663558;30;20061;-82
2021/12/16 11:48:56;;;;;;;6.55;4.18;;;9.30;93.90;;;;;;4673347;30;20174;-82
2021/12/16 11:51:47;;;;;;;7.93;5.30;;;9.30;93.60;;;;;;4668093;30;20031;-82
2021/12/16 11:54:35;;;;;;;10.18;4.63;;;9.30;93.90;;;;;;4675895;30;20034;-82
2021/12/16 11:57:06;;;;;;;7.88;4.03;;;9.40;93.80;;;;;;4675168;30;20120;-82
2021/12/16 11:59:38;;;;;;;7.00;4.85;;;9.40;93.70;;;;;;4677540;30;20062;-83
2021/12/16 12:02:06;;;;;;;9.57;5.07;;;9.50;93.60;;;;;;4678789;30;20042;-82
2021/12/16 12:04:35;;;;;;;9.35;5.05;;;9.60;93.40;;;;;;4659439;30;20058;-82
2021/12/16 12:07:15;;;;;;;8.95;5.35;;;9.60;93.30;;;;;;4659709;30;20086;-82
2021/12/16 12:09:51;;;;;;;9.88;4.70;;;9.60;93.30;;;;;;4663606;30;20062;-82
2021/12/16 12:12:46;;;;;;;6.20;4.35;;;9.60;93.20;;;;;;4679585;30;20037;-82
2021/12/16 12:15:14;;;;;;;6.20;4.40;;;9.70;93.00;;;;;;4681758;30;20045;-82
2021/12/16 12:17:51;;;;;;;8.05;4.45;;;9.80;93.30;;;;;;4682479;30;20041;-83
2021/12/16 12:20:18;;;;;;;;;;;9.80;92.70;;;;;;4680099;30;20053;-83
2021/12/16 12:22:48;;;;;;;;;;;9.90;92.80;;;;;;4686862;30;19975;-83
2021/12/16 12:25:14;;;;;;;7.65;4.50;;;9.90;92.80;;;;;;4677969;30;19955;-83
2021/12/16 12:27:40;;;;;;;4.88;3.47;;;10.00;92.50;;;;;;4650523;30;20046;-82
2021/12/16 12:30:07;;;;;;;6.63;4.47;;;9.90;92.10;;;;;;4671494;30;20066;-82
2021/12/16 12:32:38;;;;;;;6.90;4.75;;;9.90;92.30;;;;;;4662365;30;20030;-82
2021/12/16 12:35:20;;;;;;;9.63;4.25;;;9.90;92.40;;;;;;4675660;30;20092;-82
2021/12/16 12:37:50;;;;;;;8.75;5.07;;;10.00;92.50;;;;;;4671356;30;20055;-84
2021/12/16 12:40:27;;;;;;;8.45;5.00;;;10.00;92.60;;;;;;4671894;30;20050;-82
2021/12/16 12:42:55;;;;;;;8.55;5.60;;;10.00;92.30;;;;;;4685112;30;20229;-82
2021/12/16 12:45:27;;;;;;;11.65;6.07;;;9.90;92.70;;;;;;4663257;30;20067;-83
2021/12/16 12:47:55;;;;;;;13.65;7.25;;;9.80;93.40;;;;;;4676124;30;20050;-82
2021/12/16 12:50:43;;;;;;;10.52;6.30;;;9.70;94.10;;;;;;4663945;30;20046;-82
2021/12/16 12:53:21;;;;;;;10.70;7.15;;;9.60;94.60;;;;;;4674936;30;20310;-82
2021/12/16 12:55:49;;;;;;;13.75;8.18;;;9.50;95.10;;;;;;4672441;30;20030;-82
2021/12/16 12:58:22;;;;;;;14.50;7.70;;;9.50;95.40;;;;;;4657130;30;20385;-82
2021/12/16 13:00:54;;;;;;;9.95;7.50;;;9.50;95.60;;;;;;4682854;30;20123;-82
2021/12/16 13:03:31;;;;;;;11.02;7.75;;;9.40;95.70;;;;;;4672011;30;20341;-82
2021/12/16 13:06:10;;;;;;;14.23;8.20;;;9.30;96.00;;;;;;4663707;30;20046;-83
2021/12/16 13:08:41;;;;;;;15.75;8.55;;;9.40;96.00;;;;;;4663672;30;20034;-83
2021/12/16 13:11:11;;;;;;;12.77;8.60;;;9.30;96.20;;;;;;4677663;30;20064;-83
2021/12/16 13:13:55;;;;;;;16.23;10.05;;;9.30;96.40;;;;;;4659056;30;20018;-81
2021/12/16 13:16:55;;;;;;;15.55;9.88;;;9.30;96.40;;;;;;4658880;30;20035;-82
2021/12/16 13:28:05;;;;;;;23.65;11.38;;;9.30;96.70;;;;;;4677432;30;20350;-82
2021/12/16 13:30:39;;;;;;;18.60;12.30;;;9.20;96.80;;;;;;4668495;30;20357;-82
2021/12/16 13:33:24;;;;;;;16.50;11.77;;;9.30;96.80;;;;;;4677265;30;20073;-81
2021/12/16 13:36:01;;;;;;;19.83;11.68;;;9.20;96.80;;;;;;4663397;30;20322;-84
2021/12/16 13:38:34;;;;;;;;;;;9.30;96.80;;;;;;4673419;30;20034;-82
2021/12/16 13:41:08;;;;;;;18.92;12.30;;;9.30;96.90;;;;;;4658439;30;19912;-82
2021/12/16 13:43:34;;;;;;;16.60;11.63;;;9.30;96.70;;;;;;4673566;30;20117;-82
2021/12/16 13:46:26;;;;;;;19.95;11.55;;;9.30;96.80;;;;;;4662561;30;20041;-81
2021/12/16 14:03:45;;;;;;;21.55;11.73;;;9.30;97.10;;;;;;4672563;30;20029;-83
2021/12/16 14:06:26;;;;;;;17.02;10.23;;;9.30;97.10;;;;;;4676167;30;20229;-83
2021/12/16 14:08:53;;;;;;;19.52;11.45;;;9.30;97.00;;;;;;4673940;30;20315;-84
2021/12/16 14:14:47;;;;;;;16.60;9.98;;;9.40;96.90;;;;;;4674830;30;20030;-84
2021/12/16 14:23:39;;;;;;;15.07;9.48;;;9.30;96.90;;;;;;4690850;30;20034;-82
2021/12/16 14:26:18;;;;;;;15.07;8.45;;;9.20;97.10;;;;;;4661927;30;20037;-82
2021/12/16 14:42:26;;;;;;;18.05;12.38;;;9.00;97.40;;;;;;4676383;30;20288;-82
2021/12/16 14:50:32;;;;;;;20.30;11.43;;;8.80;97.50;;;;;;4666270;30;20113;-83
2021/12/16 14:52:58;;;;;;;18.35;12.52;;;8.80;97.50;;;;;;4687044;30;20038;-83
2021/12/16 14:55:27;;;;;;;21.00;12.00;;;8.70;97.60;;;;;;4644028;30;20389;-82
2021/12/16 14:57:56;;;;;;;19.10;11.82;;;8.70;97.70;;;;;;4665689;30;20042;-82
2021/12/16 15:00:44;;;;;;;16.95;11.82;;;8.70;97.80;;;;;;4679147;30;20045;-83
2021/12/16 15:03:18;;;;;;;21.00;12.20;;;8.60;97.90;;;;;;4690351;30;20097;-83
2021/12/16 15:05:47;;;;;;;21.20;11.80;;;8.60;98.10;;;;;;4672411;30;20336;-83
2021/12/16 15:08:24;;;;;;;16.92;11.45;;;8.60;98.10;;;;;;4675571;30;20038;-83
2021/12/16 15:10:51;;;;;;;22.58;12.48;;;8.60;98.00;;;;;;4662473;30;20064;-82
2021/12/16 15:13:34;;;;;;;19.20;12.10;;;8.60;97.90;;;;;;4662447;30;20153;-82
2021/12/16 15:39:10;;;;;;;14.52;10.00;;;8.60;98.60;;;;;;4604287;31;20071;-83
2021/12/16 15:44:16;;;;;;;14.98;10.20;;;8.70;98.60;;;;;;4595384;31;20366;-84
2021/12/16 15:46:42;;;;;;;16.33;10.68;;;8.60;98.70;;;;;;4593494;31;20051;-83
2021/12/16 15:49:08;;;;;;;19.20;10.52;;;8.60;98.60;;;;;;4607270;31;20525;-83
2021/12/16 15:51:34;;;;;;;15.35;10.93;;;8.60;98.60;;;;;;4607843;31;20040;-83
2021/12/16 15:54:01;;;;;;;14.13;10.07;;;8.50;98.70;;;;;;4593563;31;20039;-83
2021/12/16 15:56:34;;;;;;;17.83;10.65;;;8.60;98.70;;;;;;4613551;31;20351;-82
2021/12/16 15:59:07;;;;;;;18.33;10.43;;;8.50;98.80;;;;;;4622524;31;20127;-82
2021/12/16 16:01:36;;;;;;;14.60;9.88;;;8.60;99.00;;;;;;4610700;31;20146;-83
2021/12/16 16:04:09;;;;;;;12.90;9.60;;;8.60;99.30;;;;;;4623540;31;20044;-83
2021/12/16 16:06:38;;;;;;;17.38;10.80;;;8.60;99.70;;;;;;4623986;31;20043;-83
2021/12/16 16:09:10;;;;;;;15.93;9.65;;;8.50;99.90;;;;;;4594501;31;20356;-83
2021/12/16 16:11:38;;;;;;;14.80;9.65;;;8.50;99.90;;;;;;4606634;31;20244;-83
2021/12/16 16:14:05;;;;;;;12.70;8.38;;;8.40;99.90;;;;;;4587813;31;20690;-82
2021/12/16 16:16:41;;;;;;;13.48;9.68;;;8.40;99.90;;;;;;4665014;30;20137;-84
2021/12/16 16:19:09;;;;;;;14.43;9.52;;;8.40;99.90;;;;;;4673216;30;20065;-83
2021/12/16 16:21:47;;;;;;;13.45;9.15;;;8.40;99.90;;;;;;4664475;30;20038;-84
2021/12/16 16:24:27;;;;;;;12.80;8.75;;;8.40;99.90;;;;;;4664453;30;20345;-83
2021/12/16 16:26:55;;;;;;;13.38;8.52;;;8.50;99.90;;;;;;4664025;30;20061;-84
2021/12/16 16:29:24;;;;;;;15.48;8.90;;;8.40;99.90;;;;;;4667040;30;20380;-83
2021/12/16 16:31:51;;;;;;;13.15;8.60;;;8.40;99.90;;;;;;4664307;30;20073;-83
2021/12/16 16:34:20;;;;;;;14.35;8.70;;;8.40;99.90;;;;;;4664237;30;20281;-83
2021/12/16 16:36:50;;;;;;;14.05;8.77;;;8.30;99.90;;;;;;4664108;30;20397;-83
2021/12/16 16:39:19;;;;;;;11.73;7.70;;;8.30;99.90;;;;;;4678186;30;20053;-83
2021/12/16 16:42:10;;;;;;;11.63;7.32;;;8.40;99.90;;;;;;4663975;30;20038;-82
2021/12/16 16:44:37;;;;;;;10.90;7.50;;;8.30;99.90;;;;;;4663706;30;20045;-82
2021/12/16 16:47:24;;;;;;;10.27;7.57;;;8.30;99.90;;;;;;4688727;30;20315;-83
2021/12/16 16:49:52;;;;;;;;;;;8.40;99.90;;;;;;4675072;30;20124;-82
2021/12/16 16:52:20;;;;;;;11.93;6.95;;;8.40;99.90;;;;;;4663445;30;20259;-82
2021/12/16 16:55:06;;;;;;;10.85;6.78;;;8.50;99.90;;;;;;4663809;30;20042;-82
2021/12/16 16:58:03;;;;;;;10.87;6.93;;;8.50;99.90;;;;;;4663367;30;20042;-82
2021/12/16 17:00:41;;;;;;;7.22;5.60;;;8.50;99.90;;;;;;4673620;30;20351;-82
2021/12/16 17:03:11;;;;;;;8.55;6.00;;;8.50;99.90;;;;;;4677556;30;20120;-82
2021/12/16 17:06:07;;;;;;;9.20;5.75;;;8.50;99.90;;;;;;4663529;30;20097;-82
2021/12/16 17:08:39;;;;;;;8.57;6.20;;;8.50;99.90;;;;;;4579344;31;20262;-82
2021/12/16 17:11:12;;;;;;;10.90;6.32;;;8.50;99.90;;;;;;4578759;31;20051;-82
2021/12/16 17:14:11;;;;;;;8.93;5.55;;;8.60;99.90;;;;;;4606016;31;20040;-82
2021/12/16 17:19:20;;;;;;;7.53;5.07;;;8.60;99.90;;;;;;4605293;31;20328;-83
2021/12/16 17:21:49;;;;;;;6.72;4.85;;;8.60;99.90;;;;;;4585421;31;20055;-83
2021/12/16 17:24:19;;;;;;;7.10;4.75;;;8.60;99.90;;;;;;4582523;31;20036;-82
2021/12/16 17:26:51;;;;;;;7.15;5.18;;;8.60;99.90;;;;;;4592049;31;20056;-82
2021/12/16 17:29:24;;;;;;;6.45;4.70;;;8.60;99.90;;;;;;4603839;31;20033;-83
2021/12/16 17:32:03;;;;;;;9.35;5.55;;;8.60;99.90;;;;;;4605901;31;20064;-82
2021/12/16 17:34:40;;;;;;;7.78;5.47;;;8.70;99.90;;;;;;4591448;31;20103;-83
2021/12/16 17:37:09;;;;;;;8.20;5.75;;;8.60;99.90;;;;;;4577499;31;20162;-83
2021/12/16 17:40:03;;;;;;;7.25;4.35;;;8.70;99.90;;;;;;4592037;31;20261;-82
2021/12/16 17:42:33;;;;;;;5.70;3.85;;;8.70;99.90;;;;;;4578693;31;20040;-82
2021/12/16 17:45:12;;;;;;;5.40;4.03;;;8.60;99.90;;;;;;4645015;30;20041;-82
2021/12/16 17:47:39;;;;;;;6.88;4.07;;;8.60;99.90;;;;;;4663250;30;20128;-83
2021/12/16 17:50:12;;;;;;;4.40;3.50;;;8.50;99.90;;;;;;4662915;30;20116;-83
2021/12/16 17:52:38;;;;;;;6.72;4.00;;;8.60;99.90;;;;;;4676218;30;20113;-82
2021/12/16 17:55:12;;;;;;;6.55;3.75;;;8.70;99.90;;;;;;4676635;30;20065;-83
2021/12/16 17:57:41;;;;;;;5.47;4.00;;;8.70;99.90;;;;;;4662429;30;20055;-82
2021/12/16 18:00:28;;;;;;;5.50;4.13;;;8.70;99.90;;;;;;4675148;30;20080;-82
2021/12/16 18:02:55;;;;;;;5.90;3.67;;;8.70;99.90;;;;;;4689714;30;20053;-82
2021/12/16 18:05:24;;;;;;;3.67;2.85;;;8.70;99.90;;;;;;4660825;30;20263;-82
2021/12/16 18:07:51;;;;;;;4.38;3.53;;;8.80;99.90;;;;;;4661436;30;20041;-82
2021/12/16 18:10:19;;;;;;;4.88;3.70;;;8.80;99.80;;;;;;4676382;30;20061;-82
2021/12/16 18:12:49;;;;;;;6.45;3.88;;;8.80;99.60;;;;;;4690551;30;20030;-83
2021/12/16 18:15:17;;;;;;;6.45;4.10;;;8.90;99.60;;;;;;4662591;30;20041;-82
2021/12/16 18:17:47;;;;;;;4.88;3.45;;;8.90;99.60;;;;;;4675052;30;20037;-82
2021/12/16 18:20:39;;;;;;;5.40;4.20;;;8.90;99.50;;;;;;4674384;30;20322;-82
2021/12/16 18:23:07;;;;;;;4.30;3.58;;;9.00;99.40;;;;;;4675931;30;20248;-82
2021/12/16 18:25:45;;;;;;;5.57;3.58;;;9.00;99.40;;;;;;4673375;30;20100;-82
2021/12/16 18:28:22;;;;;;;7.72;4.28;;;9.00;99.40;;;;;;4676070;30;20381;-82
2021/12/16 18:31:13;;;;;;;6.80;3.97;;;9.00;99.20;;;;;;4661467;30;20030;-83
2021/12/16 18:33:45;;;;;;;5.72;4.28;;;9.00;99.10;;;;;;4633000;30;20043;-83
2021/12/16 18:36:17;;;;;;;7.30;3.63;;;9.00;99.20;;;;;;4628583;30;20049;-82
2021/12/16 18:38:48;;;;;;;5.28;3.97;;;9.00;99.10;;;;;;4630841;30;20050;-83
2021/12/16 18:41:17;;;;;;;7.32;4.28;;;9.00;99.20;;;;;;4645080;30;20039;-82